Time;durP1;ratioP1;P1;durP2;ratioP2;P2;SDS_P1;SDS_P2;PMS_P1;PMS_P2;Temp;Humidity;BMP_temperature;BMP_pressure;BME280_temperature;BME280_humidity;BME280_pressure;Samples;Min_cycle;Max_cycle;Signal;HPM_P1;HPM_P2
2022/03/25 00:00:52;;;;;;;28.23;16.00;;;7.80;53.30;;;;;;4944368;28;20042;-89
2022/03/25 00:03:33;;;;;;;29.40;15.65;;;7.70;53.40;;;;;;4950779;28;20041;-89
2022/03/25 00:06:08;;;;;;;25.83;15.35;;;7.70;54.00;;;;;;4940660;29;20722;-89
2022/03/25 00:08:37;;;;;;;28.52;15.63;;;7.70;53.90;;;;;;4954406;29;20035;-89
2022/03/25 00:11:06;;;;;;;28.98;16.20;;;7.70;53.70;;;;;;4947391;28;20045;-88
2022/03/25 00:13:47;;;;;;;34.03;16.63;;;7.70;54.00;;;;;;4948587;29;20044;-89
2022/03/25 00:16:46;;;;;;;29.77;16.50;;;7.60;53.70;;;;;;4946762;29;20094;-88
2022/03/25 00:19:20;;;;;;;34.13;17.67;;;7.60;54.20;;;;;;4938633;28;20039;-89
2022/03/25 00:21:51;;;;;;;30.63;16.17;;;7.50;53.80;;;;;;4949056;28;20019;-88
2022/03/25 00:24:17;;;;;;;28.92;15.73;;;7.40;53.80;;;;;;4956580;28;20034;-89
2022/03/25 00:27:27;;;;;;;24.02;14.00;;;7.40;53.90;;;;;;4947731;29;20023;-88
2022/03/25 00:29:55;;;;;;;29.13;15.45;;;7.30;54.10;;;;;;4955449;28;20032;-89
2022/03/25 00:32:32;;;;;;;32.00;15.30;;;7.30;54.30;;;;;;4955969;28;20042;-88
2022/03/25 00:35:11;;;;;;;24.65;15.02;;;7.20;54.20;;;;;;4914749;29;20119;-88
2022/03/25 00:37:49;;;;;;;23.73;14.00;;;7.10;54.50;;;;;;4944453;29;20055;-88
2022/03/25 00:43:34;;;;;;;;;;;;;;;;;;;;;
2022/03/25 00:46:00;;;;;;;24.80;14.18;;;7.00;54.50;;;;;;4967984;28;20031;-88
2022/03/25 00:49:03;;;;;;;;;;;;;;;;;;;;;
2022/03/25 00:52:26;;;;;;;31.55;15.52;;;6.90;54.80;;;;;;4947574;28;20122;-88
2022/03/25 00:55:12;;;;;;;25.38;13.50;;;6.90;54.70;;;;;;4927562;28;20039;-89
2022/03/25 01:05:27;;;;;;;;;;;;;;;;;;;;;
2022/03/25 01:11:27;;;;;;;26.45;14.38;;;6.70;55.00;;;;;;4954964;28;20038;-88
2022/03/25 01:14:02;;;;;;;23.25;14.02;;;6.60;55.60;;;;;;4931859;28;20046;-88
2022/03/25 01:20:14;;;;;;;24.13;13.80;;;6.60;55.40;;;;;;4922409;29;20052;-88
2022/03/25 01:23:14;;;;;;;35.70;13.73;;;6.50;55.40;;;;;;4912764;29;20028;-89
2022/03/25 01:25:58;;;;;;;23.60;14.07;;;6.60;55.80;;;;;;4905267;29;20046;-88
2022/03/25 01:29:18;;;;;;;22.13;14.18;;;6.60;55.70;;;;;;4951594;28;20411;-89
2022/03/25 01:36:10;;;;;;;25.23;13.65;;;6.50;55.90;;;;;;4927344;29;20392;-88
2022/03/25 01:39:35;;;;;;;;;;;;;;;;;;;;;
2022/03/25 01:46:21;;;;;;;29.73;14.35;;;6.30;55.70;;;;;;4825740;29;20045;-89
2022/03/25 01:53:00;;;;;;;;;;;;;;;;;;;;;
2022/03/25 01:56:01;;;;;;;;;;;;;;;;;;;;;
2022/03/25 01:59:15;;;;;;;;;;;;;;;;;;;;;
2022/03/25 02:01:40;;;;;;;25.83;15.32;;;6.00;56.30;;;;;;4877077;29;20050;-89
2022/03/25 02:04:25;;;;;;;25.63;15.18;;;6.00;56.00;;;;;;4902592;29;20076;-89
2022/03/25 02:07:40;;;;;;;26.83;15.30;;;6.00;56.50;;;;;;4890547;29;20191;-89
2022/03/25 02:10:10;;;;;;;27.70;14.95;;;6.00;56.70;;;;;;4914272;29;20595;-88
2022/03/25 02:12:50;;;;;;;;;;;;;;;;;;;;;
2022/03/25 02:15:42;;;;;;;26.45;15.13;;;5.80;56.90;;;;;;4964837;28;20474;-88
2022/03/25 02:18:47;;;;;;;30.17;14.93;;;5.90;57.40;;;;;;4956743;29;20472;-88
2022/03/25 02:21:31;;;;;;;32.58;15.68;;;5.90;56.90;;;;;;4953332;28;20073;-88
2022/03/25 02:24:21;;;;;;;29.58;15.85;;;5.80;56.90;;;;;;4941081;29;20034;-88
2022/03/25 02:26:55;;;;;;;25.48;15.77;;;5.80;57.10;;;;;;4939968;29;20120;-88
2022/03/25 02:29:38;;;;;;;24.95;15.25;;;5.70;56.80;;;;;;4940764;28;20039;-88
2022/03/25 02:32:10;;;;;;;30.13;16.20;;;5.70;57.00;;;;;;4946875;29;20031;-88
2022/03/25 02:34:53;;;;;;;26.85;14.93;;;5.60;57.00;;;;;;4940551;29;20123;-89
2022/03/25 02:37:49;;;;;;;;;;;;;;;;;;;;;
2022/03/25 02:42:49;;;;;;;23.27;13.95;;;5.40;56.90;;;;;;4955940;28;20058;-91
2022/03/25 02:45:20;;;;;;;27.50;15.20;;;5.30;57.10;;;;;;4948498;28;20496;-91
2022/03/25 02:47:46;;;;;;;24.67;14.93;;;5.30;57.50;;;;;;4942389;29;20039;-90
2022/03/25 02:50:12;;;;;;;24.95;13.40;;;5.20;57.30;;;;;;4942285;29;20555;-90
2022/03/25 02:52:37;;;;;;;22.20;13.77;;;5.20;57.40;;;;;;4952696;28;20038;-90
2022/03/25 02:55:04;;;;;;;29.35;14.32;;;5.20;57.50;;;;;;4970097;28;20031;-90
2022/03/25 02:57:29;;;;;;;27.05;15.73;;;5.20;57.80;;;;;;4960959;29;20011;-89
2022/03/25 02:59:55;;;;;;;26.30;14.50;;;5.20;57.90;;;;;;4958273;28;20046;-90
2022/03/25 03:02:21;;;;;;;26.25;14.98;;;5.10;58.00;;;;;;4956511;29;20031;-91
2022/03/25 03:04:46;;;;;;;27.38;14.25;;;5.10;58.00;;;;;;4940399;29;20027;-90
2022/03/25 03:07:12;;;;;;;28.30;14.77;;;5.10;58.00;;;;;;4940856;28;20107;-89
2022/03/25 03:09:38;;;;;;;23.75;13.85;;;5.10;58.20;;;;;;4948710;29;20019;-91
2022/03/25 03:12:04;;;;;;;26.05;14.45;;;5.00;57.90;;;;;;4938685;29;20023;-91
2022/03/25 03:14:29;;;;;;;23.80;14.45;;;5.00;57.90;;;;;;4946847;28;20028;-91
2022/03/25 03:16:55;;;;;;;28.23;15.25;;;4.90;58.10;;;;;;4938588;29;20105;-91
2022/03/25 03:19:20;;;;;;;24.38;14.27;;;4.90;58.30;;;;;;4952210;29;20110;-91
2022/03/25 03:21:46;;;;;;;26.13;15.00;;;4.90;58.40;;;;;;4953251;28;20024;-92
2022/03/25 03:24:12;;;;;;;23.90;14.02;;;4.90;58.40;;;;;;4939591;29;20035;-89
2022/03/25 03:26:37;;;;;;;25.05;14.23;;;4.80;58.50;;;;;;4932395;29;20090;-90
2022/03/25 03:29:03;;;;;;;26.05;14.65;;;4.80;58.60;;;;;;4951068;29;20063;-90
2022/03/25 03:31:29;;;;;;;27.40;15.02;;;4.80;58.70;;;;;;4954606;28;20019;-90
2022/03/25 03:33:54;;;;;;;26.02;14.80;;;4.80;58.80;;;;;;4952076;29;20030;-89
2022/03/25 03:36:20;;;;;;;26.75;15.20;;;4.80;58.80;;;;;;4945433;28;20027;-90
2022/03/25 03:38:47;;;;;;;22.35;13.73;;;4.70;58.70;;;;;;4938277;29;20046;-92
2022/03/25 03:41:13;;;;;;;24.45;14.00;;;4.70;58.60;;;;;;4941621;29;20117;-90
2022/03/25 03:43:39;;;;;;;27.92;14.13;;;4.70;58.60;;;;;;4938635;29;20027;-91
2022/03/25 03:46:04;;;;;;;28.60;15.02;;;4.60;58.80;;;;;;4948017;29;20050;-90
2022/03/25 03:48:31;;;;;;;26.88;14.95;;;4.60;59.10;;;;;;4945903;28;20162;-91
2022/03/25 03:50:57;;;;;;;27.02;14.98;;;4.60;59.10;;;;;;4945259;29;20019;-91
2022/03/25 03:53:22;;;;;;;24.88;14.88;;;4.50;59.00;;;;;;4954756;28;20344;-90
2022/03/25 03:55:48;;;;;;;23.88;14.25;;;4.50;59.00;;;;;;4936540;29;20015;-90
2022/03/25 03:58:14;;;;;;;27.70;14.50;;;4.50;59.00;;;;;;4951096;28;20082;-92
2022/03/25 04:00:39;;;;;;;32.88;16.92;;;4.50;59.00;;;;;;4954281;28;20031;-90
2022/03/25 04:03:06;;;;;;;29.63;15.43;;;4.40;59.00;;;;;;4938881;29;20035;-91
2022/03/25 04:05:32;;;;;;;27.00;15.95;;;4.40;59.10;;;;;;4936433;29;20031;-90
2022/03/25 04:07:58;;;;;;;27.15;15.05;;;4.30;59.30;;;;;;4944882;29;20479;-91
2022/03/25 04:10:24;;;;;;;29.75;15.63;;;4.40;59.40;;;;;;4950673;29;20024;-90
2022/03/25 04:12:49;;;;;;;26.33;15.38;;;4.30;59.40;;;;;;4955282;29;20019;-91
2022/03/25 04:15:16;;;;;;;27.42;15.23;;;4.30;59.40;;;;;;4958067;28;20031;-89
2022/03/25 04:17:43;;;;;;;24.85;15.05;;;4.20;59.30;;;;;;4970458;28;20039;-90
2022/03/25 04:20:11;;;;;;;27.05;14.65;;;4.10;59.20;;;;;;4975357;28;20039;-89
2022/03/25 04:22:37;;;;;;;27.45;14.68;;;4.00;59.20;;;;;;4959835;28;20022;-90
2022/03/25 04:25:05;;;;;;;30.10;14.57;;;4.00;59.40;;;;;;4937375;29;20118;-90
2022/03/25 04:27:31;;;;;;;24.60;14.20;;;4.00;59.90;;;;;;4952022;29;20443;-90
2022/03/25 04:29:57;;;;;;;27.73;14.93;;;3.90;59.40;;;;;;4962769;29;20039;-89
2022/03/25 04:32:22;;;;;;;26.67;14.70;;;3.90;59.40;;;;;;4962627;28;20019;-89
2022/03/25 04:34:48;;;;;;;27.58;14.38;;;3.80;59.40;;;;;;4961229;29;20074;-90
2022/03/25 04:37:13;;;;;;;26.58;15.18;;;3.80;59.50;;;;;;4955593;28;20035;-90
2022/03/25 04:39:39;;;;;;;31.38;15.85;;;3.80;59.70;;;;;;4964517;29;20042;-90
2022/03/25 04:42:07;;;;;;;27.48;15.15;;;3.80;60.00;;;;;;4941758;29;20496;-90
2022/03/25 04:44:33;;;;;;;26.63;14.82;;;3.80;60.10;;;;;;4946438;28;20129;-90
2022/03/25 04:46:59;;;;;;;26.35;14.63;;;3.90;60.00;;;;;;4945980;29;20554;-90
2022/03/25 04:49:25;;;;;;;27.67;14.98;;;3.80;59.90;;;;;;4942915;29;20027;-90
2022/03/25 04:51:50;;;;;;;26.42;14.45;;;3.80;59.90;;;;;;4938594;29;20019;-90
2022/03/25 04:54:16;;;;;;;25.60;14.38;;;3.70;60.30;;;;;;4948339;29;20019;-90
2022/03/25 04:56:41;;;;;;;26.55;15.05;;;3.70;59.80;;;;;;4939820;29;20114;-90
2022/03/25 04:59:08;;;;;;;28.45;15.25;;;3.70;59.90;;;;;;4942864;29;20042;-89
2022/03/25 05:01:34;;;;;;;32.75;15.93;;;3.60;59.90;;;;;;4937205;28;20432;-90
2022/03/25 05:03:59;;;;;;;25.15;14.70;;;3.50;60.00;;;;;;4951918;29;20031;-90
2022/03/25 05:06:25;;;;;;;25.42;15.02;;;3.50;60.10;;;;;;4935663;28;20069;-92
2022/03/25 05:08:51;;;;;;;31.90;15.40;;;3.50;60.20;;;;;;4944979;28;20397;-91
2022/03/25 05:11:16;;;;;;;26.98;14.50;;;3.50;60.20;;;;;;4938936;28;20043;-90
2022/03/25 05:13:43;;;;;;;27.10;15.68;;;3.60;60.30;;;;;;4950185;29;20094;-91
2022/03/25 05:16:09;;;;;;;26.42;14.82;;;3.50;60.30;;;;;;4943023;29;20027;-90
2022/03/25 05:18:34;;;;;;;29.75;16.05;;;3.50;60.30;;;;;;4935585;29;20467;-89
2022/03/25 05:21:01;;;;;;;25.33;13.90;;;3.50;60.40;;;;;;4939143;29;20102;-90
2022/03/25 05:23:27;;;;;;;29.60;15.60;;;3.50;60.40;;;;;;4936633;29;20039;-88
2022/03/25 05:25:53;;;;;;;28.08;15.27;;;3.50;60.40;;;;;;4955847;28;20034;-90
2022/03/25 05:28:19;;;;;;;27.50;15.27;;;3.40;60.40;;;;;;4947367;29;20031;-90
2022/03/25 05:30:45;;;;;;;29.02;14.77;;;3.40;60.40;;;;;;4939205;29;20047;-90
2022/03/25 05:33:10;;;;;;;29.70;16.10;;;3.40;61.00;;;;;;4947920;28;20031;-90
2022/03/25 05:35:36;;;;;;;34.42;15.82;;;3.40;60.50;;;;;;4938461;29;20116;-90
2022/03/25 05:38:03;;;;;;;27.67;15.43;;;3.40;60.60;;;;;;4947305;29;20030;-90
2022/03/25 05:40:28;;;;;;;31.40;14.93;;;3.40;60.60;;;;;;4947834;28;20035;-90
2022/03/25 05:42:55;;;;;;;30.05;15.75;;;3.40;60.60;;;;;;4957899;28;20035;-88
2022/03/25 05:45:22;;;;;;;30.75;15.68;;;3.40;60.60;;;;;;4943208;29;20476;-92
2022/03/25 05:47:49;;;;;;;31.40;14.88;;;3.40;60.70;;;;;;4949906;29;20038;-91
2022/03/25 05:50:15;;;;;;;26.10;14.70;;;3.50;60.70;;;;;;4948925;28;20031;-92
2022/03/25 05:52:41;;;;;;;41.88;23.02;;;3.50;60.70;;;;;;4945787;29;20050;-92
2022/03/25 05:55:08;;;;;;;31.85;15.77;;;3.50;60.70;;;;;;4948614;29;20031;-91
2022/03/25 05:57:34;;;;;;;30.13;15.73;;;3.60;60.70;;;;;;4963303;28;20047;-91
2022/03/25 06:00:00;;;;;;;27.63;16.15;;;3.60;60.70;;;;;;4964597;29;20042;-91
2022/03/25 06:02:26;;;;;;;28.98;15.35;;;3.60;61.30;;;;;;4960561;28;20098;-89
2022/03/25 06:04:53;;;;;;;28.95;15.13;;;3.70;60.90;;;;;;4958068;28;20050;-90
2022/03/25 06:07:19;;;;;;;29.65;15.82;;;3.70;60.80;;;;;;4948180;28;20058;-92
2022/03/25 06:09:44;;;;;;;29.30;15.35;;;3.70;60.80;;;;;;4949553;29;20468;-92
2022/03/25 06:12:11;;;;;;;27.00;15.68;;;3.80;60.70;;;;;;4932481;29;20028;-90
2022/03/25 06:14:38;;;;;;;32.80;15.93;;;3.80;60.70;;;;;;4938697;28;20062;-90
2022/03/25 06:17:04;;;;;;;31.15;15.70;;;3.80;60.70;;;;;;4951470;29;20031;-90
2022/03/25 06:19:30;;;;;;;28.90;16.73;;;3.80;60.90;;;;;;4939188;29;20019;-89
2022/03/25 06:21:56;;;;;;;34.20;16.15;;;3.90;61.00;;;;;;4942580;29;20038;-90
2022/03/25 06:24:22;;;;;;;29.13;16.05;;;4.00;61.00;;;;;;4945143;29;20039;-89
2022/03/25 06:26:48;;;;;;;28.88;15.30;;;4.10;60.80;;;;;;4939999;29;20450;-90
2022/03/25 06:29:14;;;;;;;38.47;20.00;;;4.20;60.70;;;;;;4941506;28;20031;-92
2022/03/25 06:31:39;;;;;;;28.15;15.88;;;4.30;60.80;;;;;;4936238;29;20024;-89
2022/03/25 06:34:05;;;;;;;26.85;14.63;;;4.40;60.80;;;;;;4930963;29;20075;-89
2022/03/25 06:36:36;;;;;;;25.92;15.43;;;4.50;60.70;;;;;;4962948;28;20038;-92
2022/03/25 06:39:05;;;;;;;29.77;16.80;;;4.50;60.50;;;;;;4955038;29;20051;-93
2022/03/25 06:41:40;;;;;;;26.88;15.45;;;4.70;60.60;;;;;;4946794;28;20039;-90
2022/03/25 06:44:12;;;;;;;28.08;14.73;;;4.80;60.70;;;;;;4960518;29;20027;-90
2022/03/25 06:46:39;;;;;;;30.08;15.93;;;5.00;60.90;;;;;;4953235;29;20174;-89
2022/03/25 06:49:06;;;;;;;26.67;15.30;;;5.20;60.90;;;;;;4938990;29;20059;-90
2022/03/25 06:51:43;;;;;;;31.48;16.08;;;5.30;61.00;;;;;;4940552;28;20031;-90
2022/03/25 06:54:09;;;;;;;29.13;15.57;;;5.50;60.90;;;;;;4937681;28;20468;-90
2022/03/25 06:56:35;;;;;;;26.98;15.68;;;5.60;60.30;;;;;;4932947;29;20066;-91
2022/03/25 06:59:02;;;;;;;28.85;16.08;;;5.70;60.10;;;;;;4940678;29;20027;-90
2022/03/25 07:01:54;;;;;;;28.20;16.27;;;5.80;60.20;;;;;;4952465;28;20025;-93
2022/03/25 07:04:20;;;;;;;26.40;15.55;;;6.10;60.10;;;;;;4945064;28;20039;-89
2022/03/25 07:06:49;;;;;;;27.35;16.33;;;6.30;59.80;;;;;;4946908;29;20039;-89
2022/03/25 07:09:15;;;;;;;34.85;16.60;;;6.50;59.60;;;;;;4947315;28;20090;-90
2022/03/25 07:11:42;;;;;;;27.25;16.00;;;6.80;59.30;;;;;;4949545;29;20122;-89
2022/03/25 07:14:07;;;;;;;30.75;16.13;;;7.10;59.00;;;;;;4937929;28;20035;-89
2022/03/25 07:16:33;;;;;;;25.42;15.13;;;7.30;58.80;;;;;;4935453;29;20544;-88
2022/03/25 07:19:01;;;;;;;26.90;15.05;;;7.80;58.40;;;;;;4937728;29;20035;-88
2022/03/25 07:21:28;;;;;;;26.60;15.55;;;8.20;57.70;;;;;;4941829;28;20560;-89
2022/03/25 07:23:53;;;;;;;25.60;15.05;;;8.80;57.50;;;;;;4955152;29;20373;-89
2022/03/25 07:26:19;;;;;;;30.50;16.08;;;9.40;57.00;;;;;;4938300;29;20030;-91
2022/03/25 07:28:45;;;;;;;24.55;15.80;;;9.80;56.40;;;;;;4938883;29;20023;-87
2022/03/25 07:31:11;;;;;;;26.17;15.35;;;10.30;56.30;;;;;;4939034;29;20035;-87
2022/03/25 07:33:36;;;;;;;24.77;14.68;;;10.80;56.30;;;;;;4940352;29;20097;-88
2022/03/25 07:36:02;;;;;;;29.00;15.68;;;11.00;56.70;;;;;;4935814;29;20038;-87
2022/03/25 07:38:28;;;;;;;26.80;15.48;;;11.20;56.70;;;;;;4943814;28;20018;-85
2022/03/25 07:40:55;;;;;;;29.20;16.17;;;11.30;56.00;;;;;;4960337;28;20031;-85
2022/03/25 07:43:22;;;;;;;28.48;16.63;;;11.50;55.60;;;;;;4959772;28;20019;-86
2022/03/25 07:45:48;;;;;;;27.85;16.83;;;12.00;55.10;;;;;;4955011;29;20031;-86
2022/03/25 07:48:14;;;;;;;28.77;16.23;;;12.70;54.10;;;;;;4962025;28;20093;-88
2022/03/25 07:50:39;;;;;;;28.98;16.40;;;13.40;53.20;;;;;;4936087;29;20027;-87
2022/03/25 07:53:05;;;;;;;29.05;16.63;;;14.10;52.20;;;;;;4937992;29;20085;-87
2022/03/25 07:55:31;;;;;;;30.58;17.75;;;14.80;51.20;;;;;;4937252;29;20020;-86
2022/03/25 07:57:57;;;;;;;30.85;16.88;;;15.50;50.50;;;;;;4938011;29;20024;-86
2022/03/25 08:00:24;;;;;;;29.92;17.85;;;16.10;49.30;;;;;;4938690;28;20086;-85
2022/03/25 08:02:53;;;;;;;28.33;17.63;;;16.60;48.40;;;;;;4944710;29;20061;-87
2022/03/25 08:05:20;;;;;;;29.58;17.20;;;17.10;47.60;;;;;;4940202;28;20126;-85
2022/03/25 08:07:53;;;;;;;27.40;16.80;;;17.60;47.10;;;;;;4941948;28;20479;-85
2022/03/25 08:10:24;;;;;;;29.83;16.67;;;18.10;46.60;;;;;;4942799;28;20581;-85
2022/03/25 08:12:50;;;;;;;27.70;17.92;;;18.70;46.30;;;;;;4952201;28;20018;-86
2022/03/25 08:15:18;;;;;;;26.73;17.48;;;19.30;45.90;;;;;;4949052;28;20023;-86
2022/03/25 08:17:52;;;;;;;27.60;17.80;;;19.90;45.30;;;;;;4955493;28;20054;-86
2022/03/25 08:20:41;;;;;;;28.25;18.02;;;20.50;44.50;;;;;;4967880;28;20031;-86
2022/03/25 08:27:48;;;;;;;38.38;18.70;;;21.10;43.70;;;;;;4950937;28;20085;-86
2022/03/25 08:28:45;;;;;;;26.35;18.20;;;22.30;42.40;;;;;;4937354;29;20063;-86
2022/03/25 08:31:13;;;;;;;31.27;19.40;;;22.70;42.00;;;;;;4935867;29;20027;-86
2022/03/25 08:33:38;;;;;;;30.88;19.67;;;22.90;41.40;;;;;;4957946;28;20387;-86
2022/03/25 08:36:04;;;;;;;29.92;19.25;;;23.20;41.30;;;;;;4948397;28;20029;-86
2022/03/25 08:38:30;;;;;;;32.60;20.23;;;23.30;41.00;;;;;;4938616;29;20032;-86
2022/03/25 08:40:57;;;;;;;33.95;21.02;;;23.40;40.50;;;;;;4960743;23;20177;-86
2022/03/25 08:43:26;;;;;;;34.65;20.40;;;23.20;40.20;;;;;;4959804;28;20146;-86
2022/03/25 08:45:52;;;;;;;35.25;21.05;;;23.10;40.40;;;;;;4972733;28;20031;-86
2022/03/25 08:48:20;;;;;;;35.08;21.33;;;23.00;40.20;;;;;;4972621;28;20031;-86
2022/03/25 08:50:45;;;;;;;31.90;20.65;;;23.00;40.30;;;;;;4972173;28;20127;-87
2022/03/25 08:53:12;;;;;;;39.70;21.13;;;22.90;40.20;;;;;;4972895;28;20514;-87
2022/03/25 08:55:41;;;;;;;33.55;20.55;;;22.90;40.50;;;;;;4972762;28;20033;-87
2022/03/25 08:58:06;;;;;;;33.65;20.33;;;22.90;40.30;;;;;;4972173;28;20027;-86
2022/03/25 09:00:34;;;;;;;33.22;19.85;;;22.80;40.30;;;;;;4971986;28;20031;-86
2022/03/25 09:03:04;;;;;;;31.90;20.15;;;22.90;40.70;;;;;;4973536;28;20362;-87
2022/03/25 09:05:37;;;;;;;34.22;21.15;;;23.00;40.30;;;;;;4971131;28;20042;-86
2022/03/25 09:08:06;;;;;;;36.97;21.30;;;23.00;40.60;;;;;;4968832;28;20370;-86
2022/03/25 09:10:32;;;;;;;39.35;20.80;;;22.80;40.30;;;;;;4971561;28;20173;-87
2022/03/25 09:12:58;;;;;;;35.40;20.75;;;22.60;40.40;;;;;;4974301;28;20022;-86
2022/03/25 09:15:24;;;;;;;36.90;22.35;;;22.60;40.60;;;;;;4976819;28;20030;-86
2022/03/25 09:17:53;;;;;;;38.83;21.35;;;22.40;40.80;;;;;;4975837;28;20062;-86
2022/03/25 09:20:19;;;;;;;39.50;23.00;;;22.30;40.70;;;;;;4967884;28;20102;-86
2022/03/25 09:22:45;;;;;;;40.05;21.42;;;22.20;40.70;;;;;;4976732;28;20373;-86
2022/03/25 09:25:14;;;;;;;37.83;22.88;;;22.00;40.80;;;;;;4974875;28;20039;-86
2022/03/25 09:27:40;;;;;;;38.92;22.00;;;21.90;40.70;;;;;;4971564;28;20149;-86
2022/03/25 09:30:10;;;;;;;39.92;23.00;;;21.80;40.80;;;;;;4974330;28;20085;-86
2022/03/25 09:32:38;;;;;;;35.28;21.45;;;21.80;40.90;;;;;;4969856;28;20022;-86
2022/03/25 09:35:13;;;;;;;36.00;22.17;;;21.80;40.90;;;;;;4990208;28;20053;-86
2022/03/25 09:37:46;;;;;;;35.13;21.92;;;21.60;41.00;;;;;;4975991;28;20019;-85
2022/03/25 09:40:14;;;;;;;37.95;22.65;;;21.40;41.00;;;;;;4968915;28;20037;-86
2022/03/25 09:42:41;;;;;;;34.85;21.88;;;21.20;41.30;;;;;;4970075;28;20035;-85
2022/03/25 09:45:11;;;;;;;34.33;22.20;;;21.10;41.50;;;;;;4975248;28;20555;-86
2022/03/25 09:47:38;;;;;;;36.85;21.60;;;21.00;41.40;;;;;;4974623;28;20485;-86
2022/03/25 09:50:06;;;;;;;36.60;22.20;;;21.20;41.70;;;;;;4973709;28;20070;-86
2022/03/25 09:52:33;;;;;;;40.88;22.95;;;21.20;41.60;;;;;;4973836;28;20085;-85
2022/03/25 09:55:00;;;;;;;35.88;22.67;;;21.10;41.40;;;;;;4979688;28;20027;-87
2022/03/25 09:57:26;;;;;;;37.38;22.40;;;21.10;41.40;;;;;;4976819;28;20057;-86
2022/03/25 09:59:55;;;;;;;48.08;22.13;;;21.10;41.20;;;;;;4975341;28;20400;-86
2022/03/25 10:02:21;;;;;;;37.95;23.02;;;21.00;41.30;;;;;;4976190;28;20030;-86
2022/03/25 10:04:49;;;;;;;40.35;22.73;;;21.00;41.50;;;;;;4975163;28;20034;-86
2022/03/25 10:07:17;;;;;;;37.45;22.27;;;21.00;41.50;;;;;;4978516;28;20023;-87
2022/03/25 10:09:47;;;;;;;37.72;22.95;;;21.10;42.20;;;;;;4971731;28;20110;-88
2022/03/25 10:12:27;;;;;;;40.70;22.90;;;21.20;41.20;;;;;;4996698;28;20052;-89
2022/03/25 10:15:10;;;;;;;40.80;22.98;;;21.10;41.30;;;;;;4989691;28;20027;-89
2022/03/25 10:17:51;;;;;;;36.90;22.73;;;21.10;41.40;;;;;;4975161;28;20373;-89
2022/03/25 10:20:18;;;;;;;39.72;22.80;;;21.10;41.20;;;;;;4973565;28;20453;-89
2022/03/25 10:23:02;;;;;;;41.60;23.77;;;21.00;41.40;;;;;;4973755;28;20093;-89
2022/03/25 10:25:37;;;;;;;41.97;23.67;;;21.00;41.90;;;;;;4972135;28;20019;-89
2022/03/25 10:28:23;;;;;;;40.80;24.95;;;21.00;41.60;;;;;;4974891;28;20034;-89
2022/03/25 10:30:51;;;;;;;40.17;23.40;;;20.90;41.00;;;;;;4967672;28;20027;-89
2022/03/25 10:33:29;;;;;;;37.60;23.33;;;20.70;41.00;;;;;;4974388;28;20118;-88
2022/03/25 10:36:08;;;;;;;40.80;23.30;;;20.70;41.80;;;;;;4973682;28;20074;-89
2022/03/25 10:38:45;;;;;;;40.53;23.17;;;20.80;41.30;;;;;;4975636;28;20330;-88
2022/03/25 10:41:16;;;;;;;36.22;22.50;;;20.90;41.40;;;;;;4970955;28;20504;-88
2022/03/25 10:43:53;;;;;;;38.53;23.55;;;21.00;41.50;;;;;;4958688;28;20039;-89
2022/03/25 10:46:41;;;;;;;39.78;24.25;;;21.00;41.50;;;;;;4972064;28;20035;-89
2022/03/25 10:49:10;;;;;;;42.20;24.42;;;21.20;41.40;;;;;;4970937;28;20027;-89
2022/03/25 10:51:56;;;;;;;44.40;23.23;;;21.40;41.60;;;;;;4981321;28;20488;-88
2022/03/25 10:54:24;;;;;;;36.00;23.10;;;21.50;42.10;;;;;;4970850;28;20039;-89
2022/03/25 10:56:55;;;;;;;38.70;23.08;;;21.60;41.20;;;;;;4973813;28;20025;-88
2022/03/25 10:59:31;;;;;;;38.47;22.50;;;21.70;41.00;;;;;;4973790;28;20030;-89
2022/03/25 11:09:37;;;;;;;;;;;;;;;;;;;;;
2022/03/25 11:12:16;;;;;;;43.78;23.63;;;22.00;40.70;;;;;;4970696;28;20035;-87
2022/03/25 11:14:48;;;;;;;46.33;24.65;;;22.00;40.70;;;;;;4974253;28;20453;-87
2022/03/25 11:17:33;;;;;;;42.67;24.70;;;22.00;40.70;;;;;;4973694;28;20093;-88
2022/03/25 11:20:25;;;;;;;40.42;23.50;;;22.10;40.50;;;;;;4973576;28;20477;-87
2022/03/25 11:23:33;;;;;;;38.45;23.60;;;22.20;40.70;;;;;;4972964;28;20035;-86
2022/03/25 11:26:24;;;;;;;41.58;23.67;;;22.30;40.40;;;;;;4968111;28;20031;-88
2022/03/25 11:29:14;;;;;;;40.78;23.48;;;22.40;40.30;;;;;;4968521;28;20061;-88
2022/03/25 11:32:11;;;;;;;36.22;22.15;;;22.50;39.80;;;;;;4955423;28;20027;-87
2022/03/25 11:34:58;;;;;;;33.75;21.80;;;22.50;39.50;;;;;;4973699;28;20417;-87
2022/03/25 11:38:19;;;;;;;;;;;;;;;;;;;;;
2022/03/25 11:41:37;;;;;;;;;;;;;;;;;;;;;
2022/03/25 11:44:49;;;;;;;34.38;22.17;;;22.60;39.20;;;;;;4970167;28;20050;-88
2022/03/25 11:47:33;;;;;;;32.40;21.58;;;22.60;39.10;;;;;;4968855;28;20035;-88
2022/03/25 11:50:32;;;;;;;32.55;20.92;;;22.50;38.70;;;;;;4969783;28;20035;-88
2022/03/25 11:53:20;;;;;;;42.15;20.77;;;22.40;38.50;;;;;;4961394;28;20105;-88
2022/03/25 11:56:36;;;;;;;;;;;;;;;;;;;;;
2022/03/25 11:59:08;;;;;;;39.33;20.83;;;22.20;38.70;;;;;;4961185;28;20029;-88
2022/03/25 12:01:34;;;;;;;35.35;21.45;;;22.10;38.40;;;;;;4982336;23;20042;-86
2022/03/25 12:04:03;;;;;;;37.47;21.05;;;22.10;38.60;;;;;;4966368;28;20375;-88
2022/03/25 12:06:50;;;;;;;36.85;18.70;;;22.10;37.90;;;;;;4946538;28;20043;-88
2022/03/25 12:09:18;;;;;;;39.28;22.63;;;22.10;37.70;;;;;;4948714;28;20062;-89
2022/03/25 12:11:56;;;;;;;30.13;19.83;;;22.10;37.80;;;;;;4945563;28;20023;-89
2022/03/25 12:17:55;;;;;;;;;;;;;;;;;;;;;
2022/03/25 12:21:10;;;;;;;;;;;;;;;;;;;;;
2022/03/25 12:23:56;;;;;;;29.67;17.65;;;22.00;37.80;;;;;;4920989;29;20041;-90
2022/03/25 12:35:31;;;;;;;29.65;18.20;;;21.80;37.80;;;;;;5005831;23;20120;-92
2022/03/25 12:38:23;;;;;;;30.17;19.48;;;21.90;37.50;;;;;;4978969;28;20054;-92
2022/03/25 12:40:51;;;;;;;27.63;17.73;;;22.10;38.10;;;;;;4978485;28;20041;-94
2022/03/25 12:43:17;;;;;;;30.98;18.83;;;22.10;37.60;;;;;;4979150;28;20037;-92
2022/03/25 12:45:50;;;;;;;30.98;18.98;;;22.10;37.40;;;;;;4984368;28;20022;-92
2022/03/25 12:48:23;;;;;;;28.92;19.42;;;22.10;37.10;;;;;;4989427;28;20026;-93
2022/03/25 12:51:04;;;;;;;30.42;19.15;;;21.90;37.00;;;;;;4989677;28;20023;-92
2022/03/25 12:53:30;;;;;;;29.97;18.10;;;21.90;37.00;;;;;;4997132;28;20034;-94
2022/03/25 12:55:58;;;;;;;30.13;18.80;;;21.90;37.20;;;;;;4997232;28;20078;-93
2022/03/25 12:58:27;;;;;;;30.00;18.92;;;21.90;37.20;;;;;;4997231;28;20045;-93
2022/03/25 13:00:56;;;;;;;26.77;17.75;;;22.20;37.40;;;;;;4996020;28;20105;-94
2022/03/25 13:03:23;;;;;;;27.33;16.90;;;22.20;37.80;;;;;;4995773;28;20060;-94
2022/03/25 13:05:49;;;;;;;29.50;18.58;;;22.30;38.30;;;;;;4994034;28;20026;-92
2022/03/25 13:08:15;;;;;;;32.50;19.40;;;22.40;37.50;;;;;;4984327;28;20030;-94
2022/03/25 13:10:42;;;;;;;31.08;17.95;;;22.50;37.10;;;;;;4981061;28;20073;-93
2022/03/25 13:13:10;;;;;;;27.75;17.30;;;22.50;37.00;;;;;;4991845;28;20034;-94
2022/03/25 13:15:46;;;;;;;29.58;18.15;;;22.70;37.00;;;;;;4984019;28;20042;-93
2022/03/25 13:18:14;;;;;;;29.88;17.70;;;22.70;36.50;;;;;;4972933;28;20166;-92
2022/03/25 13:20:45;;;;;;;27.52;17.60;;;22.80;37.00;;;;;;4978888;28;20033;-93
2022/03/25 13:23:22;;;;;;;30.63;18.10;;;22.80;36.30;;;;;;4976461;28;20027;-93
2022/03/25 13:25:53;;;;;;;38.97;24.95;;;22.60;36.20;;;;;;4972759;28;20273;-92
2022/03/25 13:28:19;;;;;;;27.67;17.63;;;22.50;36.00;;;;;;4994533;28;20026;-92
2022/03/25 13:30:48;;;;;;;25.92;17.13;;;22.50;36.30;;;;;;4983617;28;20030;-92
2022/03/25 13:33:25;;;;;;;27.05;17.67;;;22.50;36.70;;;;;;4984188;28;20026;-91
2022/03/25 13:36:13;;;;;;;25.73;16.85;;;22.60;36.20;;;;;;4981503;28;20030;-92
2022/03/25 13:38:51;;;;;;;29.35;16.80;;;22.60;35.50;;;;;;4985676;28;20487;-93
2022/03/25 13:41:34;;;;;;;26.33;17.75;;;22.60;35.70;;;;;;4989210;28;20045;-94
2022/03/25 13:44:09;;;;;;;29.73;17.55;;;22.50;35.50;;;;;;4993812;28;20038;-93
2022/03/25 13:46:35;;;;;;;29.05;17.77;;;22.50;35.70;;;;;;4987277;28;20049;-92
2022/03/25 13:49:04;;;;;;;29.88;18.27;;;22.50;35.90;;;;;;4984837;28;20049;-93
2022/03/25 13:51:36;;;;;;;29.45;18.05;;;22.60;35.90;;;;;;4994631;28;20098;-92
2022/03/25 13:54:06;;;;;;;29.58;18.55;;;22.70;35.70;;;;;;4993400;28;20023;-92
2022/03/25 13:56:36;;;;;;;27.73;17.52;;;22.60;35.60;;;;;;4989057;28;20007;-93
2022/03/25 13:59:04;;;;;;;29.60;17.33;;;22.60;35.40;;;;;;4988109;28;20026;-92
2022/03/25 14:01:46;;;;;;;29.23;17.85;;;22.40;35.50;;;;;;4991496;28;20182;-93
2022/03/25 14:04:22;;;;;;;30.85;18.38;;;22.20;35.30;;;;;;4993487;28;20450;-91
2022/03/25 14:06:49;;;;;;;29.88;18.85;;;21.80;35.40;;;;;;4983710;28;20034;-93
2022/03/25 14:09:36;;;;;;;29.25;17.25;;;21.50;35.50;;;;;;4994010;28;20022;-92
2022/03/25 14:12:22;;;;;;;29.00;17.95;;;21.10;35.70;;;;;;4986118;28;20057;-92
2022/03/25 14:14:57;;;;;;;28.83;17.98;;;20.80;35.80;;;;;;4992632;28;20049;-92